sensor_id;sensor_type;location;lat;lon;timestamp;pressure;altitude;pressure_sealevel;temperature;humidity
3590;BME280;1809;48.470;9.226;2023-05-20T00:01:20;125418.81;;;11.85;100.00
3590;BME280;1809;48.470;9.226;2023-05-20T00:03:45;125762.53;;;11.84;100.00
3590;BME280;1809;48.470;9.226;2023-05-20T00:06:10;126791.84;;;11.80;100.00
3590;BME280;1809;48.470;9.226;2023-05-20T00:08:36;127489.03;;;11.83;100.00
3590;BME280;1809;48.470;9.226;2023-05-20T00:11:01;128180.03;;;11.82;100.00
3590;BME280;1809;48.470;9.226;2023-05-20T00:13:26;128177.91;;;11.81;100.00
3590;BME280;1809;48.470;9.226;2023-05-20T00:15:52;128521.84;;;11.80;100.00
3590;BME280;1809;48.470;9.226;2023-05-20T00:18:17;128872.25;;;11.82;100.00
3590;BME280;1809;48.470;9.226;2023-05-20T00:20:43;128878.63;;;11.85;100.00
3590;BME280;1809;48.470;9.226;2023-05-20T00:23:09;129224.78;;;11.85;100.00
3590;BME280;1809;48.470;9.226;2023-05-20T00:25:34;129573.09;;;11.86;100.00
3590;BME280;1809;48.470;9.226;2023-05-20T00:27:59;129226.88;;;11.86;100.00
3590;BME280;1809;48.470;9.226;2023-05-20T00:30:25;128872.25;;;11.82;100.00
3590;BME280;1809;48.470;9.226;2023-05-20T00:32:50;129218.38;;;11.82;100.00
3590;BME280;1809;48.470;9.226;2023-05-20T00:35:15;130254.88;;;11.81;100.00
3590;BME280;1809;48.470;9.226;2023-05-20T00:37:42;130271.03;;;11.89;100.00
3590;BME280;1809;48.470;9.226;2023-05-20T00:40:07;129236.50;;;11.91;100.00
3590;BME280;1809;48.470;9.226;2023-05-20T00:42:33;128885.00;;;11.89;100.00
3590;BME280;1809;48.470;9.226;2023-05-20T00:44:59;129241.81;;;11.94;100.00
3590;BME280;1809;48.470;9.226;2023-05-20T00:47:28;129239.69;;;11.93;100.00
3590;BME280;1809;48.470;9.226;2023-05-20T00:49:54;129237.56;;;11.92;100.00
3590;BME280;1809;48.470;9.226;2023-05-20T00:52:21;129234.34;;;11.90;100.00
3590;BME280;1809;48.470;9.226;2023-05-20T00:54:46;129246.06;;;11.96;100.00
3590;BME280;1809;48.470;9.226;2023-05-20T00:57:14;128545.22;;;11.92;100.00
3590;BME280;1809;48.470;9.226;2023-05-20T00:59:39;128545.22;;;11.92;100.00
3590;BME280;1809;48.470;9.226;2023-05-20T01:02:05;128545.22;;;11.92;100.00
3590;BME280;1809;48.470;9.226;2023-05-20T01:04:31;128539.91;;;11.89;100.00
3590;BME280;1809;48.470;9.226;2023-05-20T01:06:58;128880.72;;;11.86;100.00
3590;BME280;1809;48.470;9.226;2023-05-20T01:09:25;129568.84;;;11.84;100.00
3590;BME280;1809;48.470;9.226;2023-05-20T01:14:28;131995.34;;;11.85;100.00
3590;BME280;1809;48.470;9.226;2023-05-20T01:16:57;131993.16;;;11.84;100.00
3590;BME280;1809;48.470;9.226;2023-05-20T01:19:34;131993.16;;;11.84;100.00
3590;BME280;1809;48.470;9.226;2023-05-20T01:22:05;131987.72;;;11.82;100.00
3590;BME280;1809;48.470;9.226;2023-05-20T01:24:31;132685.03;;;11.84;100.00
3590;BME280;1809;48.470;9.226;2023-05-20T01:26:57;133019.47;;;11.78;100.00
3590;BME280;1809;48.470;9.226;2023-05-20T01:29:23;133701.56;;;11.73;100.00
3590;BME280;1809;48.470;9.226;2023-05-20T01:31:50;134394.72;;;11.73;100.00
3590;BME280;1809;48.470;9.226;2023-05-20T01:34:17;135433.63;;;11.73;100.00
3590;BME280;1809;48.470;9.226;2023-05-20T01:36:44;135432.50;;;11.72;100.00
3590;BME280;1809;48.470;9.226;2023-05-20T01:39:11;136116.94;;;11.68;100.00
3590;BME280;1809;48.470;9.226;2023-05-20T01:41:37;136808.31;;;11.67;100.00
3590;BME280;1809;48.470;9.226;2023-05-20T01:44:03;137492.91;;;11.63;100.00
3590;BME280;1809;48.470;9.226;2023-05-20T01:46:32;137832.97;;;11.60;100.00
3590;BME280;1809;48.470;9.226;2023-05-20T01:48:57;138872.63;;;11.60;100.00
3590;BME280;1809;48.470;9.226;2023-05-20T01:51:23;139217.31;;;11.59;100.00
3590;BME280;1809;48.470;9.226;2023-05-20T01:53:48;140603.31;;;11.58;100.00
3590;BME280;1809;48.470;9.226;2023-05-20T01:56:13;140958.59;;;11.61;100.00
3590;BME280;1809;48.470;9.226;2023-05-20T01:58:39;140962.13;;;11.63;100.00
3590;BME280;1809;48.470;9.226;2023-05-20T02:01:04;140607.97;;;11.60;100.00
3590;BME280;1809;48.470;9.226;2023-05-20T02:03:30;140257.31;;;11.58;100.00
3590;BME280;1809;48.470;9.226;2023-05-20T02:05:55;140251.53;;;11.56;100.00
3590;BME280;1809;48.470;9.226;2023-05-20T02:08:20;140248.06;;;11.54;100.00
3590;BME280;1809;48.470;9.226;2023-05-20T02:10:48;140592.84;;;11.53;100.00
3590;BME280;1809;48.470;9.226;2023-05-20T02:13:14;140937.63;;;11.52;100.00
3590;BME280;1809;48.470;9.226;2023-05-20T02:15:42;141290.66;;;11.55;100.00
3590;BME280;1809;48.470;9.226;2023-05-20T02:18:08;141288.31;;;11.54;100.00
3590;BME280;1809;48.470;9.226;2023-05-20T02:20:36;141630.84;;;11.52;100.00
3590;BME280;1809;48.470;9.226;2023-05-20T02:23:01;141627.31;;;11.50;100.00
3590;BME280;1809;48.470;9.226;2023-05-20T02:25:30;141624.94;;;11.49;100.00
3590;BME280;1809;48.470;9.226;2023-05-20T02:27:55;141967.47;;;11.47;100.00
3590;BME280;1809;48.470;9.226;2023-05-20T02:30:21;142306.47;;;11.44;100.00
3590;BME280;1809;48.470;9.226;2023-05-20T02:32:46;142643.09;;;11.39;100.00
3590;BME280;1809;48.470;9.226;2023-05-20T02:35:12;142983.25;;;11.36;100.00
3590;BME280;1809;48.470;9.226;2023-05-20T02:37:37;143311.53;;;11.28;100.00
3590;BME280;1809;48.470;9.226;2023-05-20T02:40:03;144339.06;;;11.22;100.00
3590;BME280;1809;48.470;9.226;2023-05-20T02:42:29;145013.31;;;11.13;100.00
3590;BME280;1809;48.470;9.226;2023-05-20T02:44:54;146042.16;;;11.08;100.00
3590;BME280;1809;48.470;9.226;2023-05-20T02:47:22;146717.53;;;11.00;100.00
3590;BME280;1809;48.470;9.226;2023-05-20T02:49:48;147741.56;;;10.92;100.00
3590;BME280;1809;48.470;9.226;2023-05-20T02:52:13;148425.47;;;10.88;100.00
3590;BME280;1809;48.470;9.226;2023-05-20T02:54:40;149440.94;;;10.76;100.00
3590;BME280;1809;48.470;9.226;2023-05-20T02:57:05;150122.41;;;10.71;100.00
3590;BME280;1809;48.470;9.226;2023-05-20T02:59:30;150818.84;;;10.71;100.00
3590;BME280;1809;48.470;9.226;2023-05-20T03:01:56;151874.56;;;10.76;100.00
3590;BME280;1809;48.470;9.226;2023-05-20T03:04:21;152923.13;;;10.78;100.00
3590;BME280;1809;48.470;9.226;2023-05-20T03:06:46;153973.34;;;10.81;100.00
3590;BME280;1809;48.470;9.226;2023-05-20T03:09:12;154331.63;;;10.85;100.00
3590;BME280;1809;48.470;9.226;2023-05-20T03:11:38;154681.00;;;10.86;100.00
3590;BME280;1809;48.470;9.226;2023-05-20T03:14:03;154695.09;;;10.91;100.00
3590;BME280;1809;48.470;9.226;2023-05-20T03:16:28;154707.91;;;10.96;100.00
3590;BME280;1809;48.470;9.226;2023-05-20T03:18:54;154723.31;;;11.02;100.00
3590;BME280;1809;48.470;9.226;2023-05-20T03:21:19;154379.00;;;11.04;100.00
3590;BME280;1809;48.470;9.226;2023-05-20T03:23:47;154041.06;;;11.08;100.00
3590;BME280;1809;48.470;9.226;2023-05-20T03:26:13;153698.00;;;11.10;100.00
3590;BME280;1809;48.470;9.226;2023-05-20T03:28:38;153703.06;;;11.12;100.00
3590;BME280;1809;48.470;9.226;2023-05-20T03:31:03;153365.13;;;11.16;100.00
3590;BME280;1809;48.470;9.226;2023-05-20T03:33:29;153393.13;;;11.27;100.00
3590;BME280;1809;48.470;9.226;2023-05-20T03:35:55;153050.00;;;11.29;100.00
3590;BME280;1809;48.470;9.226;2023-05-20T03:38:20;152353.69;;;11.29;100.00
3590;BME280;1809;48.470;9.226;2023-05-20T03:40:46;151656.22;;;11.28;100.00
3590;BME280;1809;48.470;9.226;2023-05-20T03:43:11;151311.97;;;11.30;100.00
3590;BME280;1809;48.470;9.226;2023-05-20T03:45:36;150966.44;;;11.31;100.00
3590;BME280;1809;48.470;9.226;2023-05-20T03:48:01;150277.97;;;11.34;100.00
3590;BME280;1809;48.470;9.226;2023-05-20T03:50:27;149584.66;;;11.35;100.00
3590;BME280;1809;48.470;9.226;2023-05-20T03:52:53;148551.00;;;11.39;100.00
3590;BME280;1809;48.470;9.226;2023-05-20T03:55:18;147854.22;;;11.39;100.00
3590;BME280;1809;48.470;9.226;2023-05-20T03:57:44;147162.44;;;11.40;100.00
3590;BME280;1809;48.470;9.226;2023-05-20T04:00:10;147157.56;;;11.38;100.00
3590;BME280;1809;48.470;9.226;2023-05-20T04:02:38;147156.34;;;11.38;100.00
3590;BME280;1809;48.470;9.226;2023-05-20T04:05:04;147162.44;;;11.40;100.00
3590;BME280;1809;48.470;9.226;2023-05-20T04:07:29;147522.38;;;11.45;100.00
3590;BME280;1809;48.470;9.226;2023-05-20T04:09:55;146843.94;;;11.52;100.00
3590;BME280;1809;48.470;9.226;2023-05-20T04:12:23;146499.91;;;11.54;100.00
3590;BME280;1809;48.470;9.226;2023-05-20T04:14:56;146165.53;;;11.59;100.00
3590;BME280;1809;48.470;9.226;2023-05-20T04:17:22;145827.50;;;11.63;100.00
3590;BME280;1809;48.470;9.226;2023-05-20T04:19:47;145487.06;;;11.66;100.00
3590;BME280;1809;48.470;9.226;2023-05-20T04:22:12;145496.78;;;11.70;100.00
3590;BME280;1809;48.470;9.226;2023-05-20T04:24:38;144807.44;;;11.73;100.00
3590;BME280;1809;48.470;9.226;2023-05-20T04:27:03;144468.19;;;11.76;100.00
3590;BME280;1809;48.470;9.226;2023-05-20T04:29:30;143778.97;;;11.79;100.00
3590;BME280;1809;48.470;9.226;2023-05-20T04:31:58;143439.72;;;11.82;100.00
3590;BME280;1809;48.470;9.226;2023-05-20T04:34:28;142404.28;;;11.85;100.00
3590;BME280;1809;48.470;9.226;2023-05-20T04:36:53;141704.69;;;11.83;100.00
3590;BME280;1809;48.470;9.226;2023-05-20T04:39:19;141369.00;;;11.89;100.00
3590;BME280;1809;48.470;9.226;2023-05-20T04:41:44;140678.94;;;11.91;100.00
3590;BME280;1809;48.470;9.226;2023-05-20T04:44:12;139984.34;;;11.91;100.00
3590;BME280;1809;48.470;9.226;2023-05-20T04:46:38;139647.50;;;11.95;100.00
3590;BME280;1809;48.470;9.226;2023-05-20T04:49:04;138610.47;;;11.97;100.00
3590;BME280;1809;48.470;9.226;2023-05-20T04:51:29;137219.78;;;11.96;100.00
3590;BME280;1809;48.470;9.226;2023-05-20T04:53:55;135824.09;;;11.93;100.00
3590;BME280;1809;48.470;9.226;2023-05-20T04:56:20;135136.03;;;11.95;100.00
3590;BME280;1809;48.470;9.226;2023-05-20T04:58:46;134790.31;;;11.96;100.00
3590;BME280;1809;48.470;9.226;2023-05-20T05:01:11;134788.13;;;11.95;100.00
3590;BME280;1809;48.470;9.226;2023-05-20T05:03:37;133773.31;;;12.06;100.00
3590;BME280;1809;48.470;9.226;2023-05-20T05:06:02;132729.97;;;12.05;100.00
3590;BME280;1809;48.470;9.226;2023-05-20T05:08:27;132396.47;;;12.11;100.00
3590;BME280;1809;48.470;9.226;2023-05-20T05:10:53;132061.81;;;12.16;100.00
3590;BME280;1809;48.470;9.226;2023-05-20T05:13:18;132068.34;;;12.19;100.00
3590;BME280;1809;48.470;9.226;2023-05-20T05:15:43;132084.69;;;12.27;100.00
3590;BME280;1809;48.470;9.226;2023-05-20T05:18:09;131052.31;;;12.30;100.00
3590;BME280;1809;48.470;9.226;2023-05-20T05:20:34;128995.59;;;12.41;100.00
3590;BME280;1809;48.470;9.226;2023-05-20T05:22:59;126938.31;;;12.51;100.00
3590;BME280;1809;48.470;9.226;2023-05-20T05:25:25;124513.81;;;12.51;100.00
3590;BME280;1809;48.470;9.226;2023-05-20T05:27:51;124527.16;;;12.57;100.00
3590;BME280;1809;48.470;9.226;2023-05-20T05:30:16;123519.44;;;12.72;100.00
3590;BME280;1809;48.470;9.226;2023-05-20T05:32:41;118694.81;;;12.81;100.00
3590;BME280;1809;48.470;9.226;2023-05-20T05:35:07;114556.53;;;12.85;100.00
3590;BME280;1809;48.470;9.226;2023-05-20T05:37:32;112834.16;;;12.87;100.00
3590;BME280;1809;48.470;9.226;2023-05-20T05:39:58;112854.53;;;12.99;100.00
3590;BME280;1809;48.470;9.226;2023-05-20T05:42:23;112178.03;;;13.06;100.00
3590;BME280;1809;48.470;9.226;2023-05-20T05:44:48;111507.91;;;13.17;100.00
3590;BME280;1809;48.470;9.226;2023-05-20T05:47:14;109823.00;;;13.40;100.00
3590;BME280;1809;48.470;9.226;2023-05-20T05:49:39;104330.78;;;13.55;100.00
3590;BME280;1809;48.470;9.226;2023-05-20T05:52:05;93688.09;;;13.72;100.00
3590;BME280;1809;48.470;9.226;2023-05-20T05:54:30;78960.72;;;13.89;100.00
3590;BME280;1809;48.470;9.226;2023-05-20T05:56:56;70422.88;;;13.98;100.00
3590;BME280;1809;48.470;9.226;2023-05-20T05:59:21;63643.13;;;14.41;100.00
3590;BME280;1809;48.470;9.226;2023-05-20T06:01:47;40544.13;;;14.69;100.00
3590;BME280;1809;48.470;9.226;2023-05-20T06:04:12;18598.91;;;15.16;100.00
3590;BME280;1809;48.470;9.226;2023-05-20T06:06:38;-16599.91;;;15.47;100.00
3590;BME280;1809;48.470;9.226;2023-05-20T06:09:03;-16587.72;;;15.03;100.00
3590;BME280;1809;48.470;9.226;2023-05-20T06:11:28;-16597.41;;;15.38;100.00
3590;BME280;1809;48.470;9.226;2023-05-20T06:13:54;-16620.66;;;16.22;100.00
3590;BME280;1809;48.470;9.226;2023-05-20T06:16:19;-16620.78;;;16.23;100.00
3590;BME280;1809;48.470;9.226;2023-05-20T06:18:45;-16632.56;;;16.65;100.00
3590;BME280;1809;48.470;9.226;2023-05-20T06:21:10;-16620.78;;;16.23;100.00
3590;BME280;1809;48.470;9.226;2023-05-20T06:23:36;-16624.72;;;16.37;100.00
3590;BME280;1809;48.470;9.226;2023-05-20T06:26:01;-16620.53;;;16.22;100.00
3590;BME280;1809;48.470;9.226;2023-05-20T06:28:28;-16625.00;;;16.38;100.00
3590;BME280;1809;48.470;9.226;2023-05-20T06:30:54;-16630.06;;;16.56;100.00
3590;BME280;1809;48.470;9.226;2023-05-20T06:33:21;-16635.38;;;16.75;100.00
3590;BME280;1809;48.470;9.226;2023-05-20T06:35:50;-16637.59;;;16.83;100.00
3590;BME280;1809;48.470;9.226;2023-05-20T06:38:15;-16636.22;;;16.78;100.00
3590;BME280;1809;48.470;9.226;2023-05-20T06:40:40;-16627.81;;;16.48;100.00
3590;BME280;1809;48.470;9.226;2023-05-20T06:43:06;-16625.56;;;16.40;100.00
3590;BME280;1809;48.470;9.226;2023-05-20T06:45:31;-16630.31;;;16.57;100.00
3590;BME280;1809;48.470;9.226;2023-05-20T06:47:56;-16632.56;;;16.65;100.00
3590;BME280;1809;48.470;9.226;2023-05-20T06:50:22;-16634.38;;;16.72;100.00
3590;BME280;1809;48.470;9.226;2023-05-20T06:52:48;-16640.41;;;16.93;100.00
3590;BME280;1809;48.470;9.226;2023-05-20T06:55:13;-16638.16;;;16.85;100.00
3590;BME280;1809;48.470;9.226;2023-05-20T06:57:38;-16633.13;;;16.67;100.00
3590;BME280;1809;48.470;9.226;2023-05-20T07:00:04;-16649.09;;;17.25;100.00
3590;BME280;1809;48.470;9.226;2023-05-20T07:02:32;-16663.09;;;17.75;100.00
3590;BME280;1809;48.470;9.226;2023-05-20T07:04:57;-16660.00;;;17.64;100.00
3590;BME280;1809;48.470;9.226;2023-05-20T07:07:22;-16645.44;;;17.11;100.00
3590;BME280;1809;48.470;9.226;2023-05-20T07:09:48;-16640.69;;;16.94;100.00
3590;BME280;1809;48.470;9.226;2023-05-20T07:12:13;-16639.84;;;16.91;100.00
3590;BME280;1809;48.470;9.226;2023-05-20T07:14:38;-16637.59;;;16.83;100.00
3590;BME280;1809;48.470;9.226;2023-05-20T07:17:04;-16648.53;;;17.23;100.00
3590;BME280;1809;48.470;9.226;2023-05-20T07:19:30;-16646.84;;;17.16;100.00
3590;BME280;1809;48.470;9.226;2023-05-20T07:21:55;-16675.41;;;18.19;100.00
3590;BME280;1809;48.470;9.226;2023-05-20T07:24:21;-16704.78;;;19.25;100.00
3590;BME280;1809;48.470;9.226;2023-05-20T07:26:46;-16735.69;;;20.37;100.00
3590;BME280;1809;48.470;9.226;2023-05-20T07:29:11;-16732.19;;;20.24;100.00
3590;BME280;1809;48.470;9.226;2023-05-20T07:31:37;-16718.34;;;19.74;100.00
3590;BME280;1809;48.470;9.226;2023-05-20T07:34:02;-16748.84;;;20.84;100.00
3590;BME280;1809;48.470;9.226;2023-05-20T07:36:28;-16729.97;;;20.16;100.00
3590;BME280;1809;48.470;9.226;2023-05-20T07:38:54;-16709.97;;;19.44;100.00
3590;BME280;1809;48.470;9.226;2023-05-20T07:41:19;-16710.94;;;19.48;100.00
3590;BME280;1809;48.470;9.226;2023-05-20T07:43:45;-16707.72;;;19.36;100.00
3590;BME280;1809;48.470;9.226;2023-05-20T07:46:10;-16700.59;;;19.10;100.00
3590;BME280;1809;48.470;9.226;2023-05-20T07:48:36;-16694.72;;;18.89;100.00
3590;BME280;1809;48.470;9.226;2023-05-20T07:51:01;-16702.28;;;19.16;100.00
3590;BME280;1809;48.470;9.226;2023-05-20T07:53:26;-16691.94;;;18.79;100.00
3590;BME280;1809;48.470;9.226;2023-05-20T07:55:52;-16669.66;;;17.99;100.00
3590;BME280;1809;48.470;9.226;2023-05-20T07:58:17;-16668.13;;;17.93;100.00
3590;BME280;1809;48.470;9.226;2023-05-20T08:00:43;-16662.81;;;17.74;100.00
3590;BME280;1809;48.470;9.226;2023-05-20T08:03:09;-16654.41;;;17.44;100.00
3590;BME280;1809;48.470;9.226;2023-05-20T08:05:37;-16662.25;;;17.72;100.00
3590;BME280;1809;48.470;9.226;2023-05-20T08:08:03;-16668.41;;;17.94;100.00
3590;BME280;1809;48.470;9.226;2023-05-20T08:10:28;-16673.03;;;18.11;100.00
3590;BME280;1809;48.470;9.226;2023-05-20T08:12:54;-16663.38;;;17.76;100.00
3590;BME280;1809;48.470;9.226;2023-05-20T08:15:19;-16665.19;;;17.83;100.00
3590;BME280;1809;48.470;9.226;2023-05-20T08:17:45;-16674.72;;;18.17;100.00
3590;BME280;1809;48.470;9.226;2023-05-20T08:20:11;-16681.84;;;18.43;100.00
3590;BME280;1809;48.470;9.226;2023-05-20T08:22:37;-16680.16;;;18.37;100.00
3590;BME280;1809;48.470;9.226;2023-05-20T08:25:02;-16682.41;;;18.45;100.00
3590;BME280;1809;48.470;9.226;2023-05-20T08:27:28;-16688.00;;;18.65;100.00
3590;BME280;1809;48.470;9.226;2023-05-20T08:29:53;-16691.38;;;18.77;100.00
3590;BME280;1809;48.470;9.226;2023-05-20T08:32:19;-16681.00;;;18.40;100.00
3590;BME280;1809;48.470;9.226;2023-05-20T08:34:44;-16680.72;;;18.39;100.00
3590;BME280;1809;48.470;9.226;2023-05-20T08:37:09;-16676.38;;;18.23;100.00
3590;BME280;1809;48.470;9.226;2023-05-20T08:39:35;-16688.56;;;18.67;100.00
3590;BME280;1809;48.470;9.226;2023-05-20T08:42:00;-16698.34;;;19.02;100.00
3590;BME280;1809;48.470;9.226;2023-05-20T08:44:28;-16696.97;;;18.97;100.00
3590;BME280;1809;48.470;9.226;2023-05-20T08:46:55;-16708.84;;;19.40;100.00
3590;BME280;1809;48.470;9.226;2023-05-20T08:49:21;-16705.91;;;19.29;100.00
3590;BME280;1809;48.470;9.226;2023-05-20T08:51:46;-16709.81;;;19.44;100.00
3590;BME280;1809;48.470;9.226;2023-05-20T08:54:12;-16713.47;;;19.57;100.00
3590;BME280;1809;48.470;9.226;2023-05-20T08:56:38;-16709.69;;;19.43;100.00
3590;BME280;1809;48.470;9.226;2023-05-20T08:59:07;-16707.59;;;19.36;100.00
3590;BME280;1809;48.470;9.226;2023-05-20T09:01:36;-16702.00;;;19.15;100.00
3590;BME280;1809;48.470;9.226;2023-05-20T09:04:05;-16694.88;;;18.90;100.00
3590;BME280;1809;48.470;9.226;2023-05-20T09:06:41;-16687.72;;;18.64;100.00
3590;BME280;1809;48.470;9.226;2023-05-20T09:09:09;-16708.00;;;19.37;100.00
3590;BME280;1809;48.470;9.226;2023-05-20T09:11:36;-16722.13;;;19.88;100.00
3590;BME280;1809;48.470;9.226;2023-05-20T09:14:01;-16735.00;;;20.34;100.00
3590;BME280;1809;48.470;9.226;2023-05-20T09:16:26;-16730.09;;;20.17;100.00
3590;BME280;1809;48.470;9.226;2023-05-20T09:18:54;-16733.19;;;20.28;100.00
3590;BME280;1809;48.470;9.226;2023-05-20T09:21:25;-16725.22;;;19.99;100.00
3590;BME280;1809;48.470;9.226;2023-05-20T09:23:51;-16719.63;;;19.79;100.00
3590;BME280;1809;48.470;9.226;2023-05-20T09:26:18;-16716.41;;;19.67;100.00
3590;BME280;1809;48.470;9.226;2023-05-20T09:28:43;-16717.94;;;19.73;100.00
3590;BME280;1809;48.470;9.226;2023-05-20T09:31:08;-16720.88;;;19.83;100.00
3590;BME280;1809;48.470;9.226;2023-05-20T09:33:35;-16717.38;;;19.71;100.00
3590;BME280;1809;48.470;9.226;2023-05-20T09:36:07;-16716.53;;;19.68;100.00
3590;BME280;1809;48.470;9.226;2023-05-20T09:38:33;-16726.88;;;20.05;100.00
3590;BME280;1809;48.470;9.226;2023-05-20T09:41:14;-16728.84;;;20.12;100.00
3590;BME280;1809;48.470;9.226;2023-05-20T09:43:41;-16722.84;;;19.91;100.00
3590;BME280;1809;48.470;9.226;2023-05-20T09:46:07;-16720.31;;;19.81;100.00
3590;BME280;1809;48.470;9.226;2023-05-20T09:48:34;-16728.84;;;20.12;100.00
3590;BME280;1809;48.470;9.226;2023-05-20T09:51:02;-16734.03;;;20.31;100.00
3590;BME280;1809;48.470;9.226;2023-05-20T09:53:28;-16735.84;;;20.37;100.00
3590;BME280;1809;48.470;9.226;2023-05-20T09:55:54;-16739.19;;;20.50;100.00
3590;BME280;1809;48.470;9.226;2023-05-20T09:58:21;-16733.31;;;20.28;100.00
3590;BME280;1809;48.470;9.226;2023-05-20T10:00:47;-16730.38;;;20.18;100.00
3590;BME280;1809;48.470;9.226;2023-05-20T10:03:12;-16738.50;;;20.47;100.00
3590;BME280;1809;48.470;9.226;2023-05-20T10:05:42;-16742.13;;;20.60;100.00
3590;BME280;1809;48.470;9.226;2023-05-20T10:08:34;-16735.97;;;20.38;100.00
3590;BME280;1809;48.470;9.226;2023-05-20T10:21:36;-16737.50;;;20.44;100.00
3590;BME280;1809;48.470;9.226;2023-05-20T10:24:09;-16742.00;;;20.60;100.00
3590;BME280;1809;48.470;9.226;2023-05-20T10:26:40;-16753.16;;;21.00;100.00
3590;BME280;1809;48.470;9.226;2023-05-20T10:29:18;-16747.84;;;20.81;100.00
3590;BME280;1809;48.470;9.226;2023-05-20T10:31:49;-16749.25;;;20.86;100.00
3590;BME280;1809;48.470;9.226;2023-05-20T10:34:16;-16745.34;;;20.72;100.00
3590;BME280;1809;48.470;9.226;2023-05-20T10:36:45;-16748.41;;;20.83;100.00
3590;BME280;1809;48.470;9.226;2023-05-20T10:39:15;-16750.94;;;20.92;100.00
3590;BME280;1809;48.470;9.226;2023-05-20T10:41:41;-16761.84;;;21.31;100.00
3590;BME280;1809;48.470;9.226;2023-05-20T10:44:07;-16752.59;;;20.98;100.00
3590;BME280;1809;48.470;9.226;2023-05-20T10:46:33;-16760.00;;;21.25;100.00
3590;BME280;1809;48.470;9.226;2023-05-20T10:49:01;-16749.81;;;20.88;100.00
3590;BME280;1809;48.470;9.226;2023-05-20T10:51:27;-16767.69;;;21.53;100.00
3590;BME280;1809;48.470;9.226;2023-05-20T10:53:54;-16768.69;;;21.56;100.00
3590;BME280;1809;48.470;9.226;2023-05-20T10:56:24;-16757.78;;;21.17;100.00
3590;BME280;1809;48.470;9.226;2023-05-20T10:58:51;-16762.38;;;21.33;100.00
3590;BME280;1809;48.470;9.226;2023-05-20T11:01:18;-16755.69;;;21.09;100.00
3590;BME280;1809;48.470;9.226;2023-05-20T11:03:44;-16761.28;;;21.29;100.00
3590;BME280;1809;48.470;9.226;2023-05-20T11:06:15;-16765.75;;;21.45;100.00
3590;BME280;1809;48.470;9.226;2023-05-20T11:08:40;-16769.66;;;21.60;100.00
3590;BME280;1809;48.470;9.226;2023-05-20T11:11:06;-16784.75;;;22.14;100.00
3590;BME280;1809;48.470;9.226;2023-05-20T11:13:32;-16789.50;;;22.31;100.00
3590;BME280;1809;48.470;9.226;2023-05-20T11:15:57;-16797.44;;;22.60;100.00
3590;BME280;1809;48.470;9.226;2023-05-20T11:18:25;-16798.84;;;22.65;100.00
3590;BME280;1809;48.470;9.226;2023-05-20T11:20:54;-16785.84;;;22.18;100.00
3590;BME280;1809;48.470;9.226;2023-05-20T11:23:20;-16783.06;;;22.08;100.00
3590;BME280;1809;48.470;9.226;2023-05-20T11:25:49;-16782.78;;;22.07;100.00
3590;BME280;1809;48.470;9.226;2023-05-20T11:28:14;-16785.03;;;22.15;100.00
3590;BME280;1809;48.470;9.226;2023-05-20T11:30:43;-16777.47;;;21.88;100.00
3590;BME280;1809;48.470;9.226;2023-05-20T11:33:11;-16789.50;;;22.31;100.00
3590;BME280;1809;48.470;9.226;2023-05-20T11:35:43;-16790.03;;;22.33;100.00
3590;BME280;1809;48.470;9.226;2023-05-20T11:38:09;-16792.00;;;22.40;100.00
3590;BME280;1809;48.470;9.226;2023-05-20T11:40:35;-16790.88;;;22.36;100.00
3590;BME280;1809;48.470;9.226;2023-05-20T11:43:01;-16783.91;;;22.11;100.00
3590;BME280;1809;48.470;9.226;2023-05-20T11:45:38;-16782.09;;;22.05;100.00
3590;BME280;1809;48.470;9.226;2023-05-20T11:48:04;-16777.75;;;21.89;100.00
3590;BME280;1809;48.470;9.226;2023-05-20T11:50:40;-16785.56;;;22.17;100.00
3590;BME280;1809;48.470;9.226;2023-05-20T11:53:13;-16799.97;;;22.69;100.00
3590;BME280;1809;48.470;9.226;2023-05-20T11:58:19;-16802.88;;;22.80;100.00
3590;BME280;1809;48.470;9.226;2023-05-20T12:00:45;-16796.75;;;22.58;100.00
3590;BME280;1809;48.470;9.226;2023-05-20T12:03:11;-16796.88;;;22.58;100.00
3590;BME280;1809;48.470;9.226;2023-05-20T12:05:37;-16788.09;;;22.26;100.00
3590;BME280;1809;48.470;9.226;2023-05-20T12:08:02;-16780.00;;;21.97;100.00
3590;BME280;1809;48.470;9.226;2023-05-20T12:10:29;-16789.22;;;22.30;100.00
3590;BME280;1809;48.470;9.226;2023-05-20T12:12:55;-16799.25;;;22.67;100.00
3590;BME280;1809;48.470;9.226;2023-05-20T12:15:20;-16797.84;;;22.62;100.00
3590;BME280;1809;48.470;9.226;2023-05-20T12:17:50;-16799.53;;;22.68;100.00
3590;BME280;1809;48.470;9.226;2023-05-20T12:20:17;-16798.69;;;22.65;100.00
3590;BME280;1809;48.470;9.226;2023-05-20T12:22:43;-16803.88;;;22.83;100.00
3590;BME280;1809;48.470;9.226;2023-05-20T12:25:11;-16806.53;;;22.93;100.00
3590;BME280;1809;48.470;9.226;2023-05-20T12:27:36;-16800.66;;;22.72;100.00
3590;BME280;1809;48.470;9.226;2023-05-20T12:30:02;-16801.34;;;22.74;100.00
3590;BME280;1809;48.470;9.226;2023-05-20T12:32:27;-16798.41;;;22.64;100.00
3590;BME280;1809;48.470;9.226;2023-05-20T12:34:52;-16803.44;;;22.82;100.00
3590;BME280;1809;48.470;9.226;2023-05-20T12:37:18;-16813.91;;;23.20;100.00
3590;BME280;1809;48.470;9.226;2023-05-20T12:39:43;-16832.75;;;23.88;100.00
3590;BME280;1809;48.470;9.226;2023-05-20T12:42:08;-16840.00;;;24.14;100.00
3590;BME280;1809;48.470;9.226;2023-05-20T12:44:33;-16836.09;;;24.00;100.00
3590;BME280;1809;48.470;9.226;2023-05-20T12:46:59;-16844.75;;;24.31;100.00
3590;BME280;1809;48.470;9.226;2023-05-20T12:49:24;-16828.44;;;23.72;100.00
3590;BME280;1809;48.470;9.226;2023-05-20T12:51:50;-16824.66;;;23.59;100.00
3590;BME280;1809;48.470;9.226;2023-05-20T12:54:16;-16820.06;;;23.42;100.00
3590;BME280;1809;48.470;9.226;2023-05-20T12:56:42;-16818.78;;;23.37;100.00
3590;BME280;1809;48.470;9.226;2023-05-20T12:59:11;-16824.38;;;23.58;100.00
3590;BME280;1809;48.470;9.226;2023-05-20T13:01:36;-16817.13;;;23.31;100.00
3590;BME280;1809;48.470;9.226;2023-05-20T13:04:02;-16809.88;;;23.05;100.00
3590;BME280;1809;48.470;9.226;2023-05-20T13:06:28;-16816.97;;;23.31;100.00
3590;BME280;1809;48.470;9.226;2023-05-20T13:08:54;-16821.88;;;23.48;100.00
3590;BME280;1809;48.470;9.226;2023-05-20T13:11:19;-16827.88;;;23.70;100.00